Time;durP1;ratioP1;P1;durP2;ratioP2;P2;SDS_P1;SDS_P2;PMS_P1;PMS_P2;Temp;Humidity;BMP_temperature;BMP_pressure;BME280_temperature;BME280_humidity;BME280_pressure;Samples;Min_cycle;Max_cycle;Signal;HPM_P1;HPM_P2
2021/03/21 00:01:03;;;;;;;0.20;0.20;;;7.00;99.90;;;;;;5022806;28;20213;-84
2021/03/21 00:03:28;;;;;;;0.20;0.20;;;7.00;99.90;;;;;;5014471;28;20585;-85
2021/03/21 00:05:54;;;;;;;0.10;0.10;;;7.00;99.90;;;;;;5023888;28;20669;-85
2021/03/21 00:08:26;;;;;;;0.10;0.10;;;7.10;99.90;;;;;;5016731;28;20198;-85
2021/03/21 00:10:54;;;;;;;0.20;0.20;;;7.10;99.90;;;;;;5030712;28;20184;-85
2021/03/21 00:13:22;;;;;;;0.10;0.10;;;7.10;99.90;;;;;;5004596;28;20191;-85
2021/03/21 00:15:49;;;;;;;0.10;0.10;;;7.10;99.90;;;;;;5016782;28;20735;-85
2021/03/21 00:18:17;;;;;;;1.37;0.60;;;7.20;99.90;;;;;;5011618;28;20248;-85
2021/03/21 00:20:43;;;;;;;0.10;0.10;;;7.20;99.90;;;;;;5018297;28;20214;-85
2021/03/21 00:23:08;;;;;;;0.10;0.10;;;7.10;99.90;;;;;;5031390;28;20183;-84
2021/03/21 00:25:36;;;;;;;0.10;0.10;;;7.20;99.90;;;;;;5013326;28;20215;-84
2021/03/21 00:28:08;;;;;;;0.10;0.10;;;7.10;99.90;;;;;;5025646;28;20209;-84
2021/03/21 00:30:38;;;;;;;0.07;0.07;;;7.10;99.90;;;;;;5023944;28;20261;-85
2021/03/21 00:33:05;;;;;;;0.20;0.20;;;7.10;99.90;;;;;;5021783;28;20195;-85
2021/03/21 00:35:33;;;;;;;0.10;0.10;;;7.10;99.90;;;;;;5013212;28;20559;-85
2021/03/21 00:38:04;;;;;;;0.10;0.10;;;7.10;99.90;;;;;;5025067;28;20209;-84
2021/03/21 00:40:33;;;;;;;0.20;0.20;;;7.10;99.90;;;;;;5013898;28;20202;-85
2021/03/21 00:42:59;;;;;;;0.10;0.10;;;7.10;99.90;;;;;;5014428;28;20183;-85
2021/03/21 00:45:27;;;;;;;0.90;0.47;;;7.10;99.90;;;;;;5012834;28;20185;-84
2021/03/21 00:47:53;;;;;;;0.20;0.20;;;7.10;99.90;;;;;;5010102;28;20183;-84
2021/03/21 00:50:24;;;;;;;0.60;0.60;;;7.10;99.90;;;;;;5014399;28;20557;-85
2021/03/21 00:52:50;;;;;;;0.53;0.50;;;7.00;99.90;;;;;;5031183;28;20262;-85
2021/03/21 00:55:16;;;;;;;0.10;0.10;;;7.00;99.90;;;;;;5026025;28;20731;-85
2021/03/21 00:57:42;;;;;;;0.10;0.10;;;7.00;99.90;;;;;;5013540;28;20207;-85
2021/03/21 01:00:17;;;;;;;0.10;0.10;;;6.90;99.90;;;;;;5015617;28;20249;-84
2021/03/21 01:02:43;;;;;;;0.10;0.10;;;6.80;99.90;;;;;;5013898;28;20183;-84
2021/03/21 01:05:11;;;;;;;0.50;0.50;;;6.70;99.90;;;;;;5016915;28;20555;-85
2021/03/21 01:07:37;;;;;;;0.00;0.00;;;6.70;99.90;;;;;;5027675;28;20214;-85
2021/03/21 01:10:04;;;;;;;0.00;0.00;;;6.70;99.90;;;;;;5021877;28;20199;-84
2021/03/21 01:12:30;;;;;;;0.20;0.20;;;6.70;99.90;;;;;;5034571;28;20182;-85
2021/03/21 01:14:55;;;;;;;1.03;0.30;;;6.60;99.90;;;;;;5021213;28;20178;-85
2021/03/21 01:17:21;;;;;;;0.23;0.23;;;6.60;99.90;;;;;;5015923;28;20218;-85
2021/03/21 01:19:47;;;;;;;0.53;0.53;;;6.60;99.90;;;;;;5028159;28;20199;-84
2021/03/21 01:22:13;;;;;;;0.67;0.67;;;6.60;99.90;;;;;;5014140;28;20290;-87
2021/03/21 01:24:39;;;;;;;0.30;0.30;;;6.50;99.90;;;;;;5018647;28;20186;-84
2021/03/21 01:27:05;;;;;;;0.10;0.10;;;6.50;99.90;;;;;;5026489;28;20179;-85
2021/03/21 01:29:30;;;;;;;0.10;0.10;;;6.50;99.90;;;;;;5024755;28;20205;-85
2021/03/21 01:31:56;;;;;;;0.40;0.37;;;6.50;99.90;;;;;;5014389;28;20198;-86
2021/03/21 01:34:21;;;;;;;0.17;0.17;;;6.50;99.90;;;;;;5014284;28;20571;-84
2021/03/21 01:36:47;;;;;;;0.33;0.33;;;6.50;99.90;;;;;;5019468;28;20272;-84
2021/03/21 01:39:21;;;;;;;0.10;0.10;;;6.60;99.90;;;;;;5018739;28;20662;-85
2021/03/21 01:41:54;;;;;;;0.20;0.20;;;6.60;99.90;;;;;;5021643;28;20218;-84
2021/03/21 01:44:20;;;;;;;0.47;0.30;;;6.60;99.90;;;;;;5019461;28;20178;-85
2021/03/21 01:47:18;;;;;;;0.10;0.10;;;6.50;99.90;;;;;;5029244;28;20189;-84
2021/03/21 01:49:47;;;;;;;0.50;0.50;;;6.50;99.90;;;;;;5019941;28;20203;-84
2021/03/21 01:52:39;;;;;;;0.83;0.20;;;6.60;99.90;;;;;;5026247;28;20193;-85
2021/03/21 01:55:08;;;;;;;0.10;0.10;;;6.60;99.90;;;;;;5009577;28;20286;-84
2021/03/21 01:57:34;;;;;;;0.20;0.20;;;6.60;99.90;;;;;;5030409;28;20190;-84
2021/03/21 02:00:00;;;;;;;0.10;0.10;;;6.60;99.90;;;;;;5015700;28;20215;-85
2021/03/21 02:02:26;;;;;;;0.10;0.10;;;6.60;99.90;;;;;;5025298;28;20264;-84
2021/03/21 02:04:51;;;;;;;0.00;0.00;;;6.60;99.90;;;;;;5015479;28;20230;-84
2021/03/21 02:07:36;;;;;;;0.10;0.10;;;6.60;99.90;;;;;;5028023;28;20638;-84
2021/03/21 02:10:21;;;;;;;0.10;0.10;;;6.60;99.90;;;;;;5025262;28;20240;-84
2021/03/21 02:13:07;;;;;;;0.10;0.10;;;6.60;99.90;;;;;;5031423;28;20183;-85
2021/03/21 02:16:13;;;;;;;0.20;0.20;;;6.60;99.90;;;;;;5033165;28;20197;-84
2021/03/21 02:18:47;;;;;;;0.20;0.20;;;6.60;99.90;;;;;;5004609;28;20289;-84
2021/03/21 02:21:27;;;;;;;0.00;0.00;;;6.60;99.90;;;;;;5028888;28;20241;-85
2021/03/21 02:24:33;;;;;;;0.20;0.20;;;6.60;99.90;;;;;;5012102;28;20202;-85
2021/03/21 02:27:50;;;;;;;0.00;0.00;;;6.60;99.90;;;;;;5007134;28;20256;-84
2021/03/21 02:30:25;;;;;;;0.10;0.10;;;6.70;99.90;;;;;;4917159;29;20752;-85
2021/03/21 02:33:19;;;;;;;0.30;0.30;;;6.70;99.90;;;;;;4914442;29;20573;-84
2021/03/21 02:35:59;;;;;;;0.40;0.40;;;6.60;99.90;;;;;;4977575;28;20210;-84
2021/03/21 02:38:45;;;;;;;0.27;0.27;;;6.70;99.90;;;;;;5007263;28;20214;-85
2021/03/21 02:41:41;;;;;;;0.30;0.30;;;6.70;99.90;;;;;;5002637;28;20207;-84
2021/03/21 02:44:12;;;;;;;0.37;0.37;;;6.70;99.90;;;;;;5027780;28;20202;-84
2021/03/21 02:46:41;;;;;;;1.53;0.53;;;6.70;99.90;;;;;;5012672;28;20194;-85
2021/03/21 02:49:29;;;;;;;0.50;0.50;;;6.70;99.90;;;;;;5025540;28;20210;-84
2021/03/21 02:52:00;;;;;;;0.27;0.10;;;6.70;99.90;;;;;;5032314;28;20193;-85
2021/03/21 02:54:51;;;;;;;0.40;0.40;;;6.70;99.90;;;;;;5020916;28;20187;-85
2021/03/21 02:57:23;;;;;;;1.07;0.10;;;6.70;99.90;;;;;;5014381;28;20229;-83
2021/03/21 02:59:54;;;;;;;0.10;0.10;;;6.70;99.90;;;;;;5019139;28;20198;-85
2021/03/21 03:02:28;;;;;;;0.33;0.33;;;6.80;99.90;;;;;;5029425;28;20706;-85
2021/03/21 03:05:04;;;;;;;0.10;0.10;;;6.80;99.90;;;;;;5025567;28;20170;-84
2021/03/21 03:07:59;;;;;;;0.90;0.40;;;6.80;99.90;;;;;;5020126;28;20197;-85
2021/03/21 03:10:37;;;;;;;0.60;0.60;;;6.80;99.90;;;;;;5023885;28;20784;-84
2021/03/21 03:13:13;;;;;;;1.03;1.03;;;6.80;99.90;;;;;;5030414;28;20274;-85
2021/03/21 03:15:39;;;;;;;1.03;0.97;;;6.80;99.90;;;;;;5018672;28;20190;-84
2021/03/21 03:18:14;;;;;;;0.27;0.27;;;6.80;99.90;;;;;;5006687;28;20179;-84
2021/03/21 03:20:48;;;;;;;0.30;0.20;;;6.80;99.90;;;;;;5027369;28;20206;-85
2021/03/21 03:23:17;;;;;;;0.97;0.83;;;6.80;99.90;;;;;;5020661;28;20255;-84
2021/03/21 03:26:17;;;;;;;0.73;0.73;;;6.80;99.90;;;;;;5027170;28;20261;-85
2021/03/21 03:28:51;;;;;;;0.83;0.70;;;6.80;99.90;;;;;;4986266;28;20213;-85
2021/03/21 03:31:23;;;;;;;0.60;0.60;;;6.70;99.90;;;;;;5006260;28;20213;-84
2021/03/21 03:33:49;;;;;;;1.40;0.30;;;6.70;99.90;;;;;;5013347;28;20567;-84
2021/03/21 03:36:17;;;;;;;0.70;0.70;;;6.70;99.90;;;;;;5023171;28;20559;-85
2021/03/21 03:38:46;;;;;;;0.47;0.47;;;6.70;99.90;;;;;;5011698;28;20261;-85
2021/03/21 03:41:27;;;;;;;1.27;0.83;;;6.60;99.90;;;;;;5028876;28;20212;-85
2021/03/21 03:43:55;;;;;;;0.77;0.77;;;6.70;99.90;;;;;;5019290;28;20591;-85
2021/03/21 03:46:40;;;;;;;1.10;0.60;;;6.70;99.90;;;;;;5019546;28;20236;-85
2021/03/21 03:49:14;;;;;;;0.97;0.60;;;6.70;99.90;;;;;;5008685;28;20237;-85
2021/03/21 03:52:18;;;;;;;0.50;0.50;;;6.70;99.90;;;;;;5020740;28;20281;-85
2021/03/21 03:55:01;;;;;;;0.70;0.70;;;6.70;99.90;;;;;;5007261;28;20282;-86
2021/03/21 03:57:46;;;;;;;0.50;0.47;;;6.70;99.90;;;;;;5020862;28;20197;-85
2021/03/21 04:00:33;;;;;;;0.77;0.77;;;6.70;99.90;;;;;;5017110;28;20216;-85
2021/03/21 04:03:11;;;;;;;0.60;0.30;;;6.60;99.90;;;;;;5014524;28;20179;-85
2021/03/21 04:05:39;;;;;;;0.50;0.50;;;6.70;99.90;;;;;;5011322;28;20214;-85
2021/03/21 04:08:20;;;;;;;0.50;0.40;;;6.70;99.90;;;;;;5028767;28;20185;-85
2021/03/21 04:11:03;;;;;;;1.50;0.57;;;6.70;99.90;;;;;;5019307;28;20269;-85
2021/03/21 04:13:45;;;;;;;1.43;1.33;;;6.70;99.90;;;;;;5010576;28;20188;-85
2021/03/21 04:16:17;;;;;;;0.40;0.40;;;6.60;99.90;;;;;;5019860;28;20183;-85
2021/03/21 04:19:19;;;;;;;0.80;0.80;;;6.60;99.90;;;;;;5022695;28;20202;-85
2021/03/21 04:21:47;;;;;;;1.17;1.07;;;6.50;99.90;;;;;;5015985;28;20214;-84
2021/03/21 04:24:31;;;;;;;2.00;1.00;;;6.50;99.90;;;;;;5024808;28;20185;-85
2021/03/21 04:27:11;;;;;;;0.37;0.37;;;6.40;99.90;;;;;;5022917;28;20176;-85
2021/03/21 04:29:48;;;;;;;0.33;0.30;;;6.50;99.90;;;;;;5008332;28;20697;-85
2021/03/21 04:32:19;;;;;;;0.23;0.23;;;6.50;99.90;;;;;;5013950;28;20281;-85
2021/03/21 04:34:49;;;;;;;1.47;1.37;;;6.50;99.90;;;;;;5021510;28;20248;-86
2021/03/21 04:37:16;;;;;;;1.00;0.87;;;6.50;99.90;;;;;;5013151;28;20189;-85
2021/03/21 04:39:43;;;;;;;0.40;0.40;;;6.50;99.90;;;;;;5020568;28;20221;-85
2021/03/21 04:42:21;;;;;;;1.63;1.20;;;6.40;99.90;;;;;;5014091;28;20242;-84
2021/03/21 04:44:50;;;;;;;0.90;0.90;;;6.40;99.90;;;;;;5017934;28;20191;-84
2021/03/21 04:47:24;;;;;;;1.27;1.03;;;6.40;99.90;;;;;;5021718;28;20193;-86
2021/03/21 04:49:53;;;;;;;0.20;0.20;;;6.40;99.90;;;;;;5023058;28;20288;-85
2021/03/21 04:52:49;;;;;;;0.40;0.40;;;6.40;99.90;;;;;;5021438;28;20614;-85
2021/03/21 04:55:22;;;;;;;1.00;0.60;;;6.40;99.90;;;;;;5032210;28;20288;-83
2021/03/21 04:57:49;;;;;;;1.00;1.00;;;6.30;99.90;;;;;;5030114;28;20199;-84
2021/03/21 05:00:28;;;;;;;0.53;0.53;;;6.30;99.90;;;;;;5021857;28;20222;-84
2021/03/21 05:03:01;;;;;;;0.53;0.50;;;6.20;99.90;;;;;;5017103;28;20186;-84
2021/03/21 05:05:31;;;;;;;0.33;0.33;;;6.20;99.90;;;;;;5014649;28;20667;-84
2021/03/21 05:08:06;;;;;;;0.63;0.63;;;6.10;99.90;;;;;;5024365;28;20188;-84
2021/03/21 05:10:49;;;;;;;1.23;1.13;;;6.10;99.90;;;;;;5024765;28;20280;-84
2021/03/21 05:14:10;;;;;;;0.77;0.77;;;6.00;99.90;;;;;;5020699;28;20190;-84
2021/03/21 05:16:54;;;;;;;0.93;0.93;;;6.00;99.90;;;;;;4992027;28;20234;-84
2021/03/21 05:19:38;;;;;;;0.53;0.47;;;6.00;99.90;;;;;;5020294;28;20234;-84
2021/03/21 05:22:46;;;;;;;1.00;0.70;;;5.90;99.90;;;;;;5025514;28;20206;-84
2021/03/21 05:25:24;;;;;;;0.20;0.20;;;5.90;99.90;;;;;;5010031;28;20195;-84
2021/03/21 05:28:15;;;;;;;0.83;0.67;;;5.90;99.90;;;;;;5018921;28;20195;-84
2021/03/21 05:30:40;;;;;;;1.80;0.87;;;5.90;99.90;;;;;;5012470;28;20202;-85
2021/03/21 05:33:07;;;;;;;2.10;0.50;;;5.80;99.90;;;;;;5023609;28;20190;-84
2021/03/21 05:35:37;;;;;;;1.13;0.63;;;5.80;99.90;;;;;;5016477;28;20198;-84
2021/03/21 05:38:22;;;;;;;0.87;0.87;;;5.80;99.90;;;;;;5013291;28;20202;-84
2021/03/21 05:41:06;;;;;;;0.20;0.20;;;5.70;99.90;;;;;;4977870;28;20709;-84
2021/03/21 05:44:14;;;;;;;1.03;0.93;;;5.70;99.90;;;;;;5013804;28;20190;-84
2021/03/21 05:46:55;;;;;;;2.20;0.57;;;5.70;99.90;;;;;;5005235;28;20277;-84
2021/03/21 05:49:41;;;;;;;0.40;0.40;;;5.60;99.90;;;;;;5014089;28;20202;-84
2021/03/21 05:52:44;;;;;;;0.37;0.37;;;5.50;99.90;;;;;;5031655;28;20182;-84
2021/03/21 05:55:29;;;;;;;1.93;0.57;;;5.60;99.90;;;;;;5017600;28;20194;-84
2021/03/21 05:58:21;;;;;;;0.60;0.60;;;5.60;99.90;;;;;;5012751;28;20187;-84
2021/03/21 06:00:56;;;;;;;0.47;0.47;;;5.60;99.90;;;;;;5005673;28;20214;-85
2021/03/21 06:03:59;;;;;;;0.90;0.77;;;5.70;99.90;;;;;;5009162;28;20189;-86
2021/03/21 06:06:57;;;;;;;0.90;0.90;;;5.60;99.90;;;;;;5012379;28;20185;-84
2021/03/21 06:09:22;;;;;;;0.83;0.20;;;5.70;99.90;;;;;;5017995;28;20210;-85
2021/03/21 06:12:04;;;;;;;1.00;0.57;;;5.80;99.90;;;;;;5033522;28;20205;-85
2021/03/21 06:14:49;;;;;;;0.10;0.10;;;5.80;99.90;;;;;;5014150;28;20254;-86
2021/03/21 06:17:58;;;;;;;0.60;0.60;;;5.80;99.90;;;;;;5013283;28;20214;-85
2021/03/21 06:20:38;;;;;;;0.20;0.20;;;5.90;99.90;;;;;;5026135;28;20586;-86
2021/03/21 06:23:35;;;;;;;2.13;0.93;;;5.90;99.90;;;;;;5031149;28;20182;-85
2021/03/21 06:26:36;;;;;;;0.77;0.70;;;5.90;99.90;;;;;;5020688;28;20184;-85
2021/03/21 06:29:02;;;;;;;0.20;0.20;;;5.90;99.90;;;;;;5020504;28;20293;-84
2021/03/21 06:31:45;;;;;;;0.50;0.47;;;5.90;99.90;;;;;;5012311;28;20280;-84
2021/03/21 06:34:30;;;;;;;0.93;0.20;;;5.90;99.90;;;;;;5021874;28;20183;-84
2021/03/21 06:37:06;;;;;;;0.73;0.73;;;5.90;99.90;;;;;;5010814;28;20191;-84
2021/03/21 06:39:53;;;;;;;0.33;0.33;;;5.90;99.90;;;;;;5012383;28;20213;-84
2021/03/21 06:42:37;;;;;;;1.30;0.67;;;6.00;99.90;;;;;;5015322;28;20205;-84
2021/03/21 06:45:16;;;;;;;0.53;0.53;;;6.10;99.90;;;;;;5028887;28;20187;-84
2021/03/21 06:48:17;;;;;;;0.97;0.60;;;6.20;99.90;;;;;;5023432;28;20186;-84
2021/03/21 06:51:11;;;;;;;0.73;0.73;;;6.20;99.90;;;;;;5004578;28;20236;-84
2021/03/21 06:54:05;;;;;;;1.30;1.20;;;6.10;99.90;;;;;;5022286;28;20662;-84
2021/03/21 06:56:31;;;;;;;0.33;0.30;;;6.10;99.90;;;;;;5012097;28;20187;-85
2021/03/21 06:59:24;;;;;;;0.47;0.47;;;6.20;99.90;;;;;;5009921;28;20883;-83
2021/03/21 07:01:56;;;;;;;0.33;0.33;;;6.30;99.90;;;;;;5017350;28;20208;-84
2021/03/21 07:04:46;;;;;;;0.30;0.30;;;6.40;99.90;;;;;;5009783;28;20182;-83
2021/03/21 07:07:50;;;;;;;1.13;0.77;;;6.40;99.90;;;;;;5016865;28;20183;-84
2021/03/21 07:10:47;;;;;;;0.10;0.10;;;6.40;99.90;;;;;;5011315;28;20769;-86
2021/03/21 07:13:40;;;;;;;0.10;0.10;;;6.40;99.90;;;;;;4983318;28;20211;-85
2021/03/21 07:16:28;;;;;;;0.30;0.30;;;6.40;99.90;;;;;;5016305;28;20210;-85
2021/03/21 07:19:14;;;;;;;0.20;0.20;;;6.60;99.90;;;;;;5022009;28;20686;-85
2021/03/21 07:22:19;;;;;;;0.90;0.90;;;6.70;99.90;;;;;;5019990;28;20206;-85
2021/03/21 07:25:24;;;;;;;1.30;0.57;;;6.80;99.90;;;;;;5007735;28;20182;-85
2021/03/21 07:28:22;;;;;;;0.40;0.40;;;6.80;99.90;;;;;;5019772;28;20189;-85
2021/03/21 07:31:11;;;;;;;0.20;0.20;;;6.90;99.90;;;;;;4998188;28;20193;-86
2021/03/21 07:33:53;;;;;;;0.20;0.20;;;7.00;99.90;;;;;;5014348;28;20195;-85
2021/03/21 07:36:25;;;;;;;0.63;0.63;;;7.20;99.90;;;;;;5015053;28;20313;-86
2021/03/21 07:39:32;;;;;;;0.33;0.33;;;7.20;99.90;;;;;;5012185;28;20202;-85
2021/03/21 07:42:18;;;;;;;0.47;0.47;;;7.30;99.90;;;;;;5004141;28;20578;-85
2021/03/21 07:45:05;;;;;;;0.20;0.20;;;7.30;99.90;;;;;;5009905;28;20183;-85
2021/03/21 07:47:50;;;;;;;0.40;0.40;;;7.30;99.90;;;;;;5009331;28;20182;-83
2021/03/21 07:50:48;;;;;;;0.10;0.10;;;7.30;99.90;;;;;;5014956;28;20620;-84
2021/03/21 07:53:25;;;;;;;0.20;0.20;;;7.40;99.90;;;;;;4987008;28;20221;-83
2021/03/21 07:55:53;;;;;;;0.23;0.20;;;7.50;99.90;;;;;;5012928;28;20225;-84
2021/03/21 07:58:48;;;;;;;0.57;0.30;;;7.50;99.90;;;;;;5011578;28;20198;-84
2021/03/21 08:01:17;;;;;;;0.83;0.50;;;7.50;99.90;;;;;;5006285;28;20208;-85
2021/03/21 08:04:04;;;;;;;0.50;0.50;;;7.60;99.90;;;;;;5019526;28;20761;-84
2021/03/21 08:06:43;;;;;;;0.30;0.30;;;7.50;99.90;;;;;;5015384;28;20232;-84
2021/03/21 08:09:20;;;;;;;0.57;0.57;;;7.70;99.90;;;;;;5011995;28;20221;-85
2021/03/21 08:12:18;;;;;;;0.27;0.27;;;7.90;99.90;;;;;;5013524;28;20182;-85
2021/03/21 08:14:50;;;;;;;0.10;0.10;;;8.10;99.90;;;;;;4980037;28;20195;-85
2021/03/21 08:17:26;;;;;;;0.23;0.20;;;8.30;99.90;;;;;;5011218;28;20178;-85
2021/03/21 08:19:57;;;;;;;0.50;0.50;;;8.40;99.90;;;;;;5018203;28;20203;-85
2021/03/21 08:22:24;;;;;;;0.23;0.23;;;8.40;99.90;;;;;;5021644;28;20209;-87
2021/03/21 08:24:54;;;;;;;0.40;0.40;;;8.50;99.90;;;;;;5017961;28;20235;-85
2021/03/21 08:27:27;;;;;;;0.10;0.10;;;8.60;99.90;;;;;;5016161;28;20202;-85
2021/03/21 08:30:11;;;;;;;0.10;0.10;;;8.50;99.90;;;;;;5012953;28;20273;-86
2021/03/21 08:32:54;;;;;;;0.13;0.13;;;8.50;99.90;;;;;;5014765;28;20391;-85
2021/03/21 08:35:26;;;;;;;0.10;0.10;;;8.60;99.90;;;;;;5031229;28;20238;-86
2021/03/21 08:37:57;;;;;;;0.10;0.10;;;8.50;99.90;;;;;;5004851;28;20684;-83
2021/03/21 08:40:25;;;;;;;0.50;0.50;;;8.50;99.90;;;;;;5006087;28;20590;-84
2021/03/21 08:42:55;;;;;;;0.17;0.17;;;8.50;99.90;;;;;;5022148;28;20194;-83
2021/03/21 08:45:30;;;;;;;0.10;0.10;;;8.50;99.90;;;;;;5019624;28;20267;-83
2021/03/21 08:47:59;;;;;;;0.13;0.03;;;8.60;99.90;;;;;;5017558;28;20183;-84
2021/03/21 08:50:40;;;;;;;0.10;0.10;;;8.60;99.90;;;;;;5025988;28;20183;-83
2021/03/21 08:53:38;;;;;;;0.57;0.57;;;8.30;99.90;;;;;;5014961;28;20271;-83
2021/03/21 08:56:19;;;;;;;0.10;0.10;;;8.40;99.90;;;;;;5004512;28;20178;-83
2021/03/21 08:58:53;;;;;;;0.10;0.10;;;8.50;99.90;;;;;;5017757;28;20203;-84
2021/03/21 09:01:21;;;;;;;0.10;0.10;;;8.40;99.90;;;;;;5009136;28;20229;-84
2021/03/21 09:03:48;;;;;;;0.70;0.47;;;8.60;99.90;;;;;;5016558;28;20205;-84
2021/03/21 09:06:31;;;;;;;0.10;0.10;;;8.60;99.90;;;;;;5023197;28;20792;-83
2021/03/21 09:09:33;;;;;;;0.87;0.30;;;8.60;99.90;;;;;;5007685;28;20203;-83
2021/03/21 09:12:31;;;;;;;0.00;0.00;;;8.50;99.90;;;;;;5009938;28;24509;-86
2021/03/21 09:15:18;;;;;;;0.10;0.10;;;8.50;99.90;;;;;;5009418;28;20271;-84
2021/03/21 09:18:12;;;;;;;0.10;0.10;;;8.50;99.90;;;;;;5011641;28;20192;-84
2021/03/21 09:20:43;;;;;;;0.10;0.10;;;8.50;99.90;;;;;;5019435;28;20285;-84
2021/03/21 09:23:38;;;;;;;0.57;0.10;;;8.30;99.90;;;;;;5018515;28;20184;-83
2021/03/21 09:26:29;;;;;;;0.50;0.30;;;8.40;99.90;;;;;;5008737;28;20249;-85
2021/03/21 09:28:59;;;;;;;0.00;0.00;;;8.50;99.90;;;;;;4993252;28;20548;-82
2021/03/21 09:31:25;;;;;;;0.20;0.20;;;8.60;99.90;;;;;;5016668;28;20722;-85
2021/03/21 09:34:05;;;;;;;0.10;0.10;;;8.60;99.90;;;;;;5008842;28;20184;-82
2021/03/21 09:36:43;;;;;;;0.40;0.40;;;8.80;99.90;;;;;;5014987;28;20187;-82
2021/03/21 09:39:17;;;;;;;0.27;0.27;;;8.80;99.90;;;;;;5011575;28;20204;-82
2021/03/21 09:41:46;;;;;;;0.00;0.00;;;9.10;99.90;;;;;;5012604;28;20211;-81
2021/03/21 09:44:36;;;;;;;0.07;0.07;;;9.10;99.90;;;;;;5004959;28;20192;-83
2021/03/21 09:47:17;;;;;;;0.00;0.00;;;9.00;99.90;;;;;;5008428;28;20201;-81
2021/03/21 09:50:01;;;;;;;0.30;0.20;;;8.90;99.90;;;;;;5025610;28;20204;-82
2021/03/21 09:52:42;;;;;;;0.10;0.10;;;8.80;99.90;;;;;;5011615;28;20210;-85
2021/03/21 09:55:26;;;;;;;0.20;0.20;;;8.80;99.90;;;;;;5010543;28;20196;-83
2021/03/21 09:58:17;;;;;;;0.30;0.30;;;8.60;99.90;;;;;;5018161;28;20209;-84
2021/03/21 10:00:50;;;;;;;0.40;0.40;;;8.30;99.90;;;;;;5028000;28;20232;-82
2021/03/21 10:03:32;;;;;;;0.07;0.07;;;8.40;99.90;;;;;;5005921;28;20188;-83
2021/03/21 10:06:00;;;;;;;0.30;0.20;;;8.50;99.90;;;;;;5005782;28;20694;-82
2021/03/21 10:08:55;;;;;;;0.10;0.10;;;8.50;99.90;;;;;;5007418;28;20298;-83
2021/03/21 10:11:32;;;;;;;0.20;0.20;;;8.90;99.90;;;;;;5006469;28;20179;-82
2021/03/21 10:14:00;;;;;;;0.30;0.20;;;9.10;99.90;;;;;;5019386;28;20276;-82
2021/03/21 10:16:26;;;;;;;0.77;0.53;;;9.10;99.90;;;;;;5016356;28;20193;-83
2021/03/21 10:18:59;;;;;;;0.20;0.20;;;9.60;99.90;;;;;;4994332;28;20204;-83
2021/03/21 10:21:24;;;;;;;0.30;0.17;;;9.90;99.90;;;;;;5009221;28;20213;-84
2021/03/21 10:23:57;;;;;;;0.50;0.50;;;10.30;99.90;;;;;;5013342;28;20186;-84
2021/03/21 10:26:29;;;;;;;0.47;0.30;;;10.10;99.90;;;;;;5009597;28;20180;-84
2021/03/21 10:28:57;;;;;;;0.00;0.00;;;10.40;99.90;;;;;;5012746;28;20293;-83
2021/03/21 10:31:23;;;;;;;0.60;0.30;;;10.60;99.90;;;;;;5011483;28;20185;-83
2021/03/21 10:34:14;;;;;;;0.13;0.13;;;10.50;99.90;;;;;;5021865;28;20239;-83
2021/03/21 10:36:43;;;;;;;0.30;0.30;;;10.30;99.90;;;;;;4986987;28;20213;-83
2021/03/21 10:39:23;;;;;;;0.87;0.60;;;10.10;99.90;;;;;;5006207;28;20265;-82
2021/03/21 10:42:14;;;;;;;0.30;0.30;;;9.80;99.90;;;;;;5002059;28;20678;-83
2021/03/21 10:44:39;;;;;;;0.10;0.10;;;9.60;99.90;;;;;;5006941;28;20198;-83
2021/03/21 10:47:21;;;;;;;0.10;0.10;;;9.80;99.90;;;;;;5027711;28;20189;-85
2021/03/21 10:49:51;;;;;;;0.00;0.00;;;10.00;99.90;;;;;;5012571;28;20206;-83
2021/03/21 10:52:35;;;;;;;0.40;0.27;;;9.80;99.90;;;;;;5000511;28;20288;-84
2021/03/21 10:57:42;;;;;;;0.63;0.30;;;10.60;99.90;;;;;;5007600;28;20212;-86
2021/03/21 11:00:33;;;;;;;0.07;0.07;;;10.90;99.90;;;;;;5015823;28;20224;-84
2021/03/21 11:03:05;;;;;;;1.37;0.37;;;10.60;99.90;;;;;;5018051;28;20201;-84
2021/03/21 11:05:42;;;;;;;1.87;0.87;;;10.50;99.90;;;;;;5020867;28;20190;-84
2021/03/21 11:08:25;;;;;;;0.33;0.33;;;10.70;99.90;;;;;;5016747;28;20181;-84
2021/03/21 11:10:54;;;;;;;0.30;0.30;;;10.40;99.90;;;;;;5012121;28;20194;-83
2021/03/21 11:13:35;;;;;;;0.10;0.10;;;10.60;99.90;;;;;;5004069;28;20304;-83
2021/03/21 11:16:16;;;;;;;0.20;0.20;;;11.20;99.90;;;;;;5015192;28;20198;-84
2021/03/21 11:18:47;;;;;;;0.10;0.10;;;11.20;99.90;;;;;;5018817;28;20240;-84
2021/03/21 11:21:19;;;;;;;0.67;0.50;;;10.70;99.90;;;;;;5029015;28;20242;-84
2021/03/21 11:23:53;;;;;;;0.67;0.20;;;11.20;99.90;;;;;;5010686;28;20186;-85
2021/03/21 11:26:26;;;;;;;0.33;0.20;;;11.40;99.90;;;;;;5000082;28;20610;-84
2021/03/21 11:28:53;;;;;;;0.13;0.13;;;11.20;99.90;;;;;;5007200;28;20203;-84
2021/03/21 11:31:50;;;;;;;0.20;0.20;;;11.80;99.90;;;;;;5007943;28;20811;-84
2021/03/21 11:34:27;;;;;;;0.40;0.40;;;12.00;99.90;;;;;;5013534;28;20215;-84
2021/03/21 11:37:21;;;;;;;0.33;0.17;;;12.20;99.90;;;;;;5003105;28;20210;-84
2021/03/21 11:39:54;;;;;;;0.10;0.10;;;12.00;99.90;;;;;;5007542;28;20215;-84
2021/03/21 11:42:27;;;;;;;0.23;0.23;;;12.00;99.90;;;;;;5014601;28;20279;-84
2021/03/21 11:45:12;;;;;;;1.20;0.50;;;11.90;99.90;;;;;;5009428;28;20678;-83
2021/03/21 11:47:46;;;;;;;0.93;0.40;;;11.80;99.90;;;;;;5010997;28;20331;-83
2021/03/21 11:50:29;;;;;;;0.30;0.30;;;11.10;99.90;;;;;;5014935;28;20202;-83
2021/03/21 11:52:56;;;;;;;0.17;0.17;;;11.40;99.90;;;;;;5010381;28;20187;-85
2021/03/21 11:55:29;;;;;;;0.40;0.40;;;11.80;99.90;;;;;;5022620;28;20198;-85
2021/03/21 11:58:03;;;;;;;0.20;0.20;;;11.30;99.90;;;;;;5014122;28;20789;-83
2021/03/21 12:00:39;;;;;;;0.30;0.17;;;11.60;99.90;;;;;;5009381;28;20182;-84
2021/03/21 12:03:16;;;;;;;0.20;0.20;;;11.20;99.90;;;;;;5007717;28;20542;-84
2021/03/21 12:05:56;;;;;;;0.20;0.20;;;11.20;99.90;;;;;;5015971;28;20238;-83
2021/03/21 12:08:30;;;;;;;0.10;0.10;;;11.30;99.90;;;;;;5019650;28;20245;-84
2021/03/21 12:10:57;;;;;;;0.10;0.10;;;11.00;99.90;;;;;;5023373;28;20182;-83
2021/03/21 12:13:33;;;;;;;0.73;0.23;;;11.10;99.90;;;;;;5012017;28;20284;-82
2021/03/21 12:16:01;;;;;;;0.30;0.30;;;11.40;99.90;;;;;;5009175;28;20240;-83
2021/03/21 12:18:29;;;;;;;0.00;0.00;;;11.40;99.90;;;;;;5009700;28;20207;-84
2021/03/21 12:20:58;;;;;;;0.00;0.00;;;11.30;99.90;;;;;;5024133;28;20285;-84
2021/03/21 12:23:42;;;;;;;0.10;0.10;;;11.50;99.90;;;;;;5031848;28;20217;-83
2021/03/21 12:26:18;;;;;;;0.20;0.20;;;10.90;99.90;;;;;;5017827;28;20267;-84
2021/03/21 12:28:50;;;;;;;0.10;0.10;;;10.70;99.90;;;;;;5032029;28;20232;-84
2021/03/21 12:31:22;;;;;;;0.20;0.20;;;11.00;99.90;;;;;;5020816;28;20182;-82
2021/03/21 12:33:48;;;;;;;0.30;0.30;;;11.10;99.90;;;;;;5020115;28;20198;-84
2021/03/21 12:36:24;;;;;;;0.30;0.30;;;11.00;99.90;;;;;;5016663;28;20263;-82
2021/03/21 12:39:19;;;;;;;0.30;0.20;;;11.30;99.90;;;;;;5014342;28;20210;-83
2021/03/21 12:41:46;;;;;;;0.10;0.10;;;11.40;99.90;;;;;;4994639;28;20196;-83
2021/03/21 12:44:23;;;;;;;0.50;0.30;;;11.20;99.90;;;;;;5032135;28;20182;-83
2021/03/21 12:47:25;;;;;;;0.30;0.30;;;11.10;99.90;;;;;;5030921;28;20178;-83
2021/03/21 12:49:52;;;;;;;0.17;0.17;;;11.10;99.90;;;;;;5025662;28;20228;-83
2021/03/21 12:52:22;;;;;;;0.10;0.10;;;10.80;99.90;;;;;;5011180;28;20203;-83
2021/03/21 12:54:48;;;;;;;0.10;0.10;;;10.90;99.90;;;;;;5024648;28;20658;-83
2021/03/21 12:57:15;;;;;;;0.17;0.17;;;10.80;99.90;;;;;;5023584;28;20226;-84
2021/03/21 12:59:49;;;;;;;0.00;0.00;;;10.80;99.90;;;;;;5018192;28;20297;-82
2021/03/21 13:02:19;;;;;;;1.70;0.37;;;10.60;99.90;;;;;;5011614;28;20709;-82
2021/03/21 13:04:45;;;;;;;0.10;0.10;;;10.70;99.90;;;;;;5009842;28;20194;-83
2021/03/21 13:07:11;;;;;;;0.20;0.20;;;10.80;99.90;;;;;;5013639;28;20190;-82
2021/03/21 13:09:41;;;;;;;0.20;0.20;;;10.90;99.90;;;;;;5026715;28;20206;-82
2021/03/21 13:12:08;;;;;;;0.87;0.53;;;11.30;99.90;;;;;;5017259;28;20205;-82
2021/03/21 13:14:34;;;;;;;0.20;0.20;;;11.40;99.90;;;;;;5016987;28;20598;-83
2021/03/21 13:17:00;;;;;;;0.30;0.30;;;11.40;99.90;;;;;;5026183;28;20191;-81
2021/03/21 13:19:25;;;;;;;0.30;0.30;;;11.40;99.90;;;;;;5021266;28;20268;-82
2021/03/21 13:21:51;;;;;;;0.20;0.20;;;11.60;99.90;;;;;;5014177;28;20218;-82
2021/03/21 13:24:17;;;;;;;0.10;0.10;;;11.40;99.90;;;;;;5013494;28;20219;-82
2021/03/21 13:26:42;;;;;;;0.10;0.10;;;11.30;99.90;;;;;;5006185;28;20210;-83
2021/03/21 13:29:08;;;;;;;1.20;0.30;;;11.10;99.90;;;;;;5015538;28;20261;-81
2021/03/21 13:31:33;;;;;;;0.50;0.50;;;10.70;99.90;;;;;;5012989;28;20226;-82
2021/03/21 13:33:59;;;;;;;0.10;0.10;;;10.70;99.90;;;;;;5018504;28;20246;-82
2021/03/21 13:36:25;;;;;;;0.17;0.17;;;10.50;99.90;;;;;;5012637;28;20276;-81
2021/03/21 13:38:51;;;;;;;0.70;0.50;;;10.20;99.90;;;;;;5015449;28;20216;-84
2021/03/21 13:41:18;;;;;;;2.83;0.60;;;10.30;99.90;;;;;;5007743;28;20200;-82
2021/03/21 13:43:43;;;;;;;0.20;0.20;;;10.60;99.90;;;;;;5014648;28;20585;-81
2021/03/21 13:46:09;;;;;;;1.80;0.70;;;11.00;99.90;;;;;;5030657;28;20197;-83
2021/03/21 13:48:35;;;;;;;0.10;0.10;;;10.50;99.90;;;;;;5021416;28;20210;-83
2021/03/21 13:51:01;;;;;;;0.17;0.17;;;10.70;99.90;;;;;;5013397;28;20284;-83